地図

経路データ

SID SEASON NUMBER BASIN SUBBASIN NAME ISO_TIME NATURE LAT LON WMO_WIND WMO_PRES WMO_AGENCY TRACK_TYPE DIST2LAND LANDFALL IFLAG USA_AGENCY USA_ATCF_ID USA_LAT USA_LON USA_RECORD USA_STATUS USA_WIND USA_PRES USA_SSHS USA_R34_NE USA_R34_SE USA_R34_SW USA_R34_NW USA_R50_NE USA_R50_SE USA_R50_SW USA_R50_NW USA_R64_NE USA_R64_SE USA_R64_SW USA_R64_NW USA_POCI USA_ROCI USA_RMW USA_EYE TOKYO_LAT TOKYO_LON TOKYO_GRADE TOKYO_WIND TOKYO_PRES TOKYO_R50_DIR TOKYO_R50_LONG TOKYO_R50_SHORT TOKYO_R30_DIR TOKYO_R30_LONG TOKYO_R30_SHORT TOKYO_LAND CMA_LAT CMA_LON CMA_CAT CMA_WIND CMA_PRES HKO_LAT HKO_LON HKO_CAT HKO_WIND HKO_PRES NEWDELHI_LAT NEWDELHI_LON NEWDELHI_GRADE NEWDELHI_WIND NEWDELHI_PRES NEWDELHI_CI NEWDELHI_DP NEWDELHI_POCI REUNION_LAT REUNION_LON REUNION_TYPE REUNION_WIND REUNION_PRES REUNION_TNUM REUNION_CI REUNION_RMW REUNION_R34_NE REUNION_R34_SE REUNION_R34_SW REUNION_R34_NW REUNION_R50_NE REUNION_R50_SE REUNION_R50_SW REUNION_R50_NW REUNION_R64_NE REUNION_R64_SE REUNION_R64_SW REUNION_R64_NW BOM_LAT BOM_LON BOM_TYPE BOM_WIND BOM_PRES BOM_TNUM BOM_CI BOM_RMW BOM_R34_NE BOM_R34_SE BOM_R34_SW BOM_R34_NW BOM_R50_NE BOM_R50_SE BOM_R50_SW BOM_R50_NW BOM_R64_NE BOM_R64_SE BOM_R64_SW BOM_R64_NW BOM_ROCI BOM_POCI BOM_EYE BOM_POS_METHOD BOM_PRES_METHOD NADI_LAT NADI_LON NADI_CAT NADI_WIND NADI_PRES WELLINGTON_LAT WELLINGTON_LON WELLINGTON_WIND WELLINGTON_PRES DS824_LAT DS824_LON DS824_STAGE DS824_WIND DS824_PRES TD9636_LAT TD9636_LON TD9636_STAGE TD9636_WIND TD9636_PRES TD9635_LAT TD9635_LON TD9635_WIND TD9635_PRES TD9635_ROCI NEUMANN_LAT NEUMANN_LON NEUMANN_CLASS NEUMANN_WIND NEUMANN_PRES MLC_LAT MLC_LON MLC_CLASS MLC_WIND MLC_PRES USA_GUST BOM_GUST BOM_GUST_PER REUNION_GUST REUNION_GUST_PER USA_SEAHGT USA_SEARAD_NE USA_SEARAD_SE USA_SEARAD_SW USA_SEARAD_NW STORM_SPEED STORM_DIR
1962062S26052 1962 31 SI MM JENNY 1962-03-02 18:00:00 NR -26.3000 51.5000 reunion spur-other 463 463 _____O________ -1 -26.3000 51.5000 99 9.90000 5 164
1962062S26052 1962 31 SI MM JENNY 1962-03-02 21:00:00 NR -26.5574 51.5852 spur-other 484 484 _____P________ -1 -26.5400 51.5825 99 5 160
1962062S26052 1962 31 SI MM JENNY 1962-03-03 00:00:00 NR -26.8000 51.7000 reunion spur-other 501 501 _____O________ -1 -26.8000 51.7000 99 9.90000 6 154
1962062S26052 1962 31 SI MM JENNY 1962-03-03 03:00:00 NR -27.0925 51.8775 spur-other 533 533 _____P________ -1 -27.0925 51.8775 99 7 149
1962062S26052 1962 31 SI MM JENNY 1962-03-03 06:00:00 NR -27.4000 52.1000 reunion spur-other 565 565 _____O________ -1 -27.4000 52.1000 99 9.90000 7 148
1962062S26052 1962 31 SI MM JENNY 1962-03-03 09:00:00 NR -27.7148 52.3201 spur-other 599 599 _____P________ -1 -27.7148 52.3201 99 7 144
1962062S26052 1962 31 SI MM JENNY 1962-03-03 12:00:00 NR -28.0000 52.6000 reunion spur-other 641 641 _____O________ -1 -28.0000 52.6000 99 9.90000 8 131
1962062S26052 1962 31 SI MM JENNY 1962-03-03 15:00:00 NR -28.2225 52.9776 spur-other 686 686 _____P________ -1 -28.2225 52.9776 99 8 120
1962062S26052 1962 31 SI MM JENNY 1962-03-03 18:00:00 NR -28.4000 53.4000 reunion spur-other 731 731 _____O________ -1 -28.4000 53.4000 99 9.90000 8 116
1962062S26052 1962 31 SI MM JENNY 1962-03-03 21:00:00 NR -28.5723 53.7925 spur-other 776 776 _____P________ -1 -28.5723 53.7925 99 8 113
1962062S26052 1962 31 SI MM JENNY 1962-03-04 00:00:00 NR -28.7000 54.2000 reunion spur-other 815 815 _____O________ -1 -28.7000 54.2000 99 9.90000 8 104
1962062S26052 1962 31 SI MM JENNY 1962-03-04 03:00:00 NR -28.7649 54.6427 spur-other 832 828 _____P________ -1 -28.7649 54.6427 99 8 97
1962062S26052 1962 31 SI MM JENNY 1962-03-04 06:00:00 NR -28.8000 55.1000 reunion spur-other 828 827 _____O________ -1 -28.8000 55.1000 99 9.90000 8 97
1962062S26052 1962 31 SI MM JENNY 1962-03-04 09:00:00 NR -28.8648 55.5423 spur-other 838 837 _____P________ -1 -28.8648 55.5423 99 8 97
1962062S26052 1962 31 SI MM JENNY 1962-03-04 12:00:00 NR -28.9000 56.0000 reunion spur-other 838 838 _____O________ -1 -28.9000 56.0000 99 9.90000 8 89
1962062S26052 1962 31 SI MM JENNY 1962-03-04 15:00:00 NR -28.8574 56.4928 spur-other 842 832 _____P________ -1 -28.8574 56.4928 99 9 83
1962062S26052 1962 31 SI MM JENNY 1962-03-04 18:00:00 NR -28.8000 57.0000 reunion spur-other 838 838 _____O________ -1 -28.8000 57.0000 99 9.90000 9 85
1962062S26052 1962 31 SI MM JENNY 1962-03-04 21:00:00 NR -28.7774 57.5076 spur-other 848 848 _____P________ -1 -28.7774 57.5076 99 9 90
1962062S26052 1962 31 SI MM JENNY 1962-03-05 00:00:00 NR -28.8000 58.0000 reunion spur-other 861 861 _____O________ -1 -28.8000 58.0000 99 9.90000 9 95
1962062S26052 1962 31 SI MM JENNY 1962-03-05 03:00:00 NR -28.8477 58.5174 spur-other 876 876 _____P________ -1 -28.8477 58.5174 99 8 104
1962062S26052 1962 31 SI MM JENNY 1962-03-05 06:00:00 NR -29.0000 58.9000 reunion spur-other 911 911 _____O________ -1 -29.0000 58.9000 99 9.90000 6 136
1962062S26052 1962 31 SI MM JENNY 1962-03-05 09:00:00 NR -29.3048 59.0278 spur-other 946 946 _____P________ -1 -29.3048 59.0278 99 7 173
1962062S26052 1962 31 SI MM JENNY 1962-03-05 12:00:00 NR -29.7000 59.0000 reunion spur-other 987 _____O________ -1 -29.7000 59.0000 99 9.90000 8 183

IBTrACS Databaseについて

本データベースは、米国NOAAが公開する1842年以降の世界の熱帯低気圧のベストトラックデータアーカイブInternational Best Track Archive for Climate Stewardship (IBTrACS)を、ウェブで閲覧しやすい形式に変換したものです。

最終更新日:2021-12-03